Terminal Aerodrome Forecast
Issued by NWS Rapid City, SD

Home | Current Version | Previous Version | Graphics & Text | Print | Product List | Glossary On
Versions: 1 2 3 4 5 6 7 8 9 10 11 12 13 14 15
914
FTUS43 KUNR 201130
TAFRAP
TAF
KRAP 201130Z 2012/2112 31007KT P6SM SCT150
     FM202000 34010KT P6SM SCT050 BKN150
     FM210200 31007KT P6SM BKN050=

USA.gov is the U.S. government's official web portal to all federal, state and local government web resources and services.